Hasanuddin International Airport
WAAA : now visible

Airfield :











YOU CAN JOIN US ON...

 
LOGIN :

Register | Disclaimer

   EN    FR    IT 

 









Legend :    VFR   Marginal VFR   IFR   Intensive IFR   Very Intensive IFR
Visi :
Ceiling :
>= 8 km
>= 3000ft
5 to 8 km
1000 to 3000 ft
1500m to 5 km
500 to 1000 ft
800 to 1500m
200 to 500 ft
< 800m
< 200 ft
Symbols :   Thunderstorms  Fog  Heavy snow  Heavy precipitations  Wind > 20 kt






- Airport Elevation : 47 ft
- IATA code : UPG


WAAA - Hasanuddin International

CURRENT METAR :
  • 171730Z 12002KT 8000 FEW020 26/26 Q1009

EXPIRED METARs :
  • 171700Z 14001KT 8000 FEW020 26/26 Q1010 NOSIG
  • 171630Z VRB02KT 8000 SCT020 26/26 Q1010 NOSIG
  • 171600Z 12003KT 8000 FEW020 26/26 Q1010 NOSIG
  • 171530Z 12002KT 8000 FEW020 26/26 Q1011 NOSIG
  • 171500Z 00000KT 8000 FEW020 27/27 Q1011 NOSIG

TAF TAF WAAA
Valid from the 17 at 18:00 until the 19 at 00:00 UTC


171700Z 1718/1900 10003KT 8000 FEW019
BECMG 1802/1804 33010KT
BECMG 1810/1812 10035KT



MET'MAP, your aeronautical weather chart ! - Copyright ORBIFLY December 2007 - Disclaimer

ORBIFLY MET'MAP TEAM :

Programming & Development : Alexandra Zaïnal
Concept & original design : Baudouin d'Aumeries
Assistance for programming : Marc-Olivier Méhu
Technical & hardware support : Manuel Goepfert

Contact : metmap@orbifly.com




SOURCES & CREDITS :

   NOAA       Earth
Advisory